sensor_id;sensor_type;location;lat;lon;timestamp;temperature;humidity
1455;DHT22;721;48.168;12.818;2023-04-03T00:01:25;4.30;22.40
1455;DHT22;721;48.168;12.818;2023-04-03T00:03:52;4.30;24.80
1455;DHT22;721;48.168;12.818;2023-04-03T00:06:20;4.10;23.10
1455;DHT22;721;48.168;12.818;2023-04-03T00:08:48;4.20;27.00
1455;DHT22;721;48.168;12.818;2023-04-03T00:11:14;4.10;26.30
1455;DHT22;721;48.168;12.818;2023-04-03T00:13:41;4.00;27.00
1455;DHT22;721;48.168;12.818;2023-04-03T00:16:09;4.10;27.30
1455;DHT22;721;48.168;12.818;2023-04-03T00:18:37;4.00;24.40
1455;DHT22;721;48.168;12.818;2023-04-03T00:21:05;4.10;25.80
1455;DHT22;721;48.168;12.818;2023-04-03T00:23:34;4.10;26.50
1455;DHT22;721;48.168;12.818;2023-04-03T00:26:01;4.00;26.10
1455;DHT22;721;48.168;12.818;2023-04-03T00:28:27;4.00;27.90
1455;DHT22;721;48.168;12.818;2023-04-03T00:30:54;4.00;29.10
1455;DHT22;721;48.168;12.818;2023-04-03T00:33:22;4.20;30.60
1455;DHT22;721;48.168;12.818;2023-04-03T00:35:50;4.10;28.10
1455;DHT22;721;48.168;12.818;2023-04-03T00:38:17;4.20;29.10
1455;DHT22;721;48.168;12.818;2023-04-03T00:40:47;4.30;27.90
1455;DHT22;721;48.168;12.818;2023-04-03T00:43:17;4.20;26.80
1455;DHT22;721;48.168;12.818;2023-04-03T00:45:45;4.20;26.20
1455;DHT22;721;48.168;12.818;2023-04-03T00:48:15;4.30;27.60
1455;DHT22;721;48.168;12.818;2023-04-03T00:50:44;4.30;27.10
1455;DHT22;721;48.168;12.818;2023-04-03T00:53:13;4.40;23.60
1455;DHT22;721;48.168;12.818;2023-04-03T00:55:41;4.30;24.90
1455;DHT22;721;48.168;12.818;2023-04-03T00:58:11;4.20;25.60
1455;DHT22;721;48.168;12.818;2023-04-03T01:00:40;4.20;27.10
1455;DHT22;721;48.168;12.818;2023-04-03T01:03:09;4.20;26.00
1455;DHT22;721;48.168;12.818;2023-04-03T01:05:36;4.10;23.60
1455;DHT22;721;48.168;12.818;2023-04-03T01:08:04;4.10;25.90
1455;DHT22;721;48.168;12.818;2023-04-03T01:10:31;4.10;25.80
1455;DHT22;721;48.168;12.818;2023-04-03T01:13:00;4.10;26.60
1455;DHT22;721;48.168;12.818;2023-04-03T01:15:28;4.10;27.80
1455;DHT22;721;48.168;12.818;2023-04-03T01:17:58;4.10;27.20
1455;DHT22;721;48.168;12.818;2023-04-03T01:23:30;4.10;26.60
1455;DHT22;721;48.168;12.818;2023-04-03T01:25:59;4.10;25.60
1455;DHT22;721;48.168;12.818;2023-04-03T01:28:29;4.00;25.00
1455;DHT22;721;48.168;12.818;2023-04-03T01:31:02;4.00;24.10
1455;DHT22;721;48.168;12.818;2023-04-03T01:33:34;3.90;25.60
1455;DHT22;721;48.168;12.818;2023-04-03T01:36:01;3.90;26.30
1455;DHT22;721;48.168;12.818;2023-04-03T01:38:28;3.90;27.10
1455;DHT22;721;48.168;12.818;2023-04-03T01:40:55;3.90;26.50
1455;DHT22;721;48.168;12.818;2023-04-03T01:43:22;3.90;26.60
1455;DHT22;721;48.168;12.818;2023-04-03T01:45:49;3.80;27.30
1455;DHT22;721;48.168;12.818;2023-04-03T01:48:17;3.70;26.40
1455;DHT22;721;48.168;12.818;2023-04-03T01:50:46;3.80;27.30
1455;DHT22;721;48.168;12.818;2023-04-03T01:53:13;3.80;27.00
1455;DHT22;721;48.168;12.818;2023-04-03T01:55:40;3.80;27.00
1455;DHT22;721;48.168;12.818;2023-04-03T01:58:07;3.80;27.00
1455;DHT22;721;48.168;12.818;2023-04-03T02:00:34;3.80;26.40
1455;DHT22;721;48.168;12.818;2023-04-03T02:03:01;3.90;26.20
1455;DHT22;721;48.168;12.818;2023-04-03T02:05:28;3.90;25.90
1455;DHT22;721;48.168;12.818;2023-04-03T02:07:56;4.00;25.90
1455;DHT22;721;48.168;12.818;2023-04-03T02:10:23;3.90;25.10
1455;DHT22;721;48.168;12.818;2023-04-03T02:12:50;3.90;27.10
1455;DHT22;721;48.168;12.818;2023-04-03T02:15:17;4.00;27.20
1455;DHT22;721;48.168;12.818;2023-04-03T02:17:44;3.80;26.80
1455;DHT22;721;48.168;12.818;2023-04-03T02:20:11;3.70;27.50
1455;DHT22;721;48.168;12.818;2023-04-03T02:22:39;3.70;28.00
1455;DHT22;721;48.168;12.818;2023-04-03T02:25:08;3.70;29.80
1455;DHT22;721;48.168;12.818;2023-04-03T02:27:35;3.80;29.30
1455;DHT22;721;48.168;12.818;2023-04-03T02:30:02;3.80;28.30
1455;DHT22;721;48.168;12.818;2023-04-03T02:32:29;3.70;28.70
1455;DHT22;721;48.168;12.818;2023-04-03T02:34:56;3.70;28.30
1455;DHT22;721;48.168;12.818;2023-04-03T02:37:23;3.70;28.40
1455;DHT22;721;48.168;12.818;2023-04-03T02:39:50;3.70;29.40
1455;DHT22;721;48.168;12.818;2023-04-03T02:42:18;3.70;28.30
1455;DHT22;721;48.168;12.818;2023-04-03T02:44:44;3.80;29.00
1455;DHT22;721;48.168;12.818;2023-04-03T02:47:12;3.80;27.30
1455;DHT22;721;48.168;12.818;2023-04-03T02:49:38;3.70;25.70
1455;DHT22;721;48.168;12.818;2023-04-03T02:52:06;3.70;26.30
1455;DHT22;721;48.168;12.818;2023-04-03T02:54:33;3.80;26.80
1455;DHT22;721;48.168;12.818;2023-04-03T02:57:00;3.70;25.10
1455;DHT22;721;48.168;12.818;2023-04-03T02:59:29;3.80;26.00
1455;DHT22;721;48.168;12.818;2023-04-03T03:01:56;3.70;26.60
1455;DHT22;721;48.168;12.818;2023-04-03T03:04:24;3.70;25.40
1455;DHT22;721;48.168;12.818;2023-04-03T03:06:51;3.70;26.40
1455;DHT22;721;48.168;12.818;2023-04-03T03:09:18;3.60;26.30
1455;DHT22;721;48.168;12.818;2023-04-03T03:11:45;3.60;26.90
1455;DHT22;721;48.168;12.818;2023-04-03T03:14:12;3.60;27.90
1455;DHT22;721;48.168;12.818;2023-04-03T03:16:40;3.50;28.60
1455;DHT22;721;48.168;12.818;2023-04-03T03:19:07;3.60;29.60
1455;DHT22;721;48.168;12.818;2023-04-03T03:21:34;3.70;28.00
1455;DHT22;721;48.168;12.818;2023-04-03T03:24:01;3.70;27.10
1455;DHT22;721;48.168;12.818;2023-04-03T03:26:29;3.70;27.00
1455;DHT22;721;48.168;12.818;2023-04-03T03:28:55;3.70;24.50
1455;DHT22;721;48.168;12.818;2023-04-03T03:31:22;3.70;25.80
1455;DHT22;721;48.168;12.818;2023-04-03T03:33:50;4.60;26.20
1455;DHT22;721;48.168;12.818;2023-04-03T03:36:17;3.80;22.90
1455;DHT22;721;48.168;12.818;2023-04-03T03:38:44;3.90;23.20
1455;DHT22;721;48.168;12.818;2023-04-03T03:41:11;3.90;22.80
1455;DHT22;721;48.168;12.818;2023-04-03T03:43:37;4.00;22.70
1455;DHT22;721;48.168;12.818;2023-04-03T03:46:04;3.90;20.70
1455;DHT22;721;48.168;12.818;2023-04-03T03:48:31;4.00;21.70
1455;DHT22;721;48.168;12.818;2023-04-03T03:50:59;3.90;19.90
1455;DHT22;721;48.168;12.818;2023-04-03T03:53:26;3.90;20.70
1455;DHT22;721;48.168;12.818;2023-04-03T03:55:53;3.90;21.30
1455;DHT22;721;48.168;12.818;2023-04-03T03:58:19;3.80;22.40
1455;DHT22;721;48.168;12.818;2023-04-03T04:00:47;3.70;22.30
1455;DHT22;721;48.168;12.818;2023-04-03T04:03:13;3.70;23.70
1455;DHT22;721;48.168;12.818;2023-04-03T04:05:40;3.50;24.70
1455;DHT22;721;48.168;12.818;2023-04-03T04:08:08;3.70;26.30
1455;DHT22;721;48.168;12.818;2023-04-03T04:10:35;3.60;25.70
1455;DHT22;721;48.168;12.818;2023-04-03T04:13:04;3.60;27.30
1455;DHT22;721;48.168;12.818;2023-04-03T04:15:30;3.50;26.90
1455;DHT22;721;48.168;12.818;2023-04-03T04:17:57;3.50;26.80
1455;DHT22;721;48.168;12.818;2023-04-03T04:20:24;3.40;27.20
1455;DHT22;721;48.168;12.818;2023-04-03T04:22:51;3.50;28.10
1455;DHT22;721;48.168;12.818;2023-04-03T04:25:19;3.50;28.70
1455;DHT22;721;48.168;12.818;2023-04-03T04:27:46;3.50;28.30
1455;DHT22;721;48.168;12.818;2023-04-03T04:30:13;3.50;27.90
1455;DHT22;721;48.168;12.818;2023-04-03T04:32:40;3.50;28.00
1455;DHT22;721;48.168;12.818;2023-04-03T04:35:08;3.40;27.20
1455;DHT22;721;48.168;12.818;2023-04-03T04:37:35;3.40;26.40
1455;DHT22;721;48.168;12.818;2023-04-03T04:40:02;3.50;27.00
1455;DHT22;721;48.168;12.818;2023-04-03T04:42:30;3.60;27.90
1455;DHT22;721;48.168;12.818;2023-04-03T04:44:57;3.50;27.30
1455;DHT22;721;48.168;12.818;2023-04-03T04:47:23;3.60;27.90
1455;DHT22;721;48.168;12.818;2023-04-03T04:49:50;3.40;27.50
1455;DHT22;721;48.168;12.818;2023-04-03T04:52:17;3.40;29.40
1455;DHT22;721;48.168;12.818;2023-04-03T04:54:45;3.40;29.00
1455;DHT22;721;48.168;12.818;2023-04-03T04:57:12;3.40;27.70
1455;DHT22;721;48.168;12.818;2023-04-03T04:59:40;3.40;27.40
1455;DHT22;721;48.168;12.818;2023-04-03T05:02:07;3.40;28.10
1455;DHT22;721;48.168;12.818;2023-04-03T05:04:34;3.50;28.00
1455;DHT22;721;48.168;12.818;2023-04-03T05:07:00;3.50;26.80
1455;DHT22;721;48.168;12.818;2023-04-03T05:09:27;3.60;26.60
1455;DHT22;721;48.168;12.818;2023-04-03T05:11:54;3.50;26.20
1455;DHT22;721;48.168;12.818;2023-04-03T05:14:21;3.50;27.50
1455;DHT22;721;48.168;12.818;2023-04-03T05:16:50;3.30;29.30
1455;DHT22;721;48.168;12.818;2023-04-03T05:19:18;3.30;30.50
1455;DHT22;721;48.168;12.818;2023-04-03T05:21:45;3.40;31.90
1455;DHT22;721;48.168;12.818;2023-04-03T05:24:12;3.40;32.30
1455;DHT22;721;48.168;12.818;2023-04-03T05:26:39;3.30;34.30
1455;DHT22;721;48.168;12.818;2023-04-03T05:29:05;3.50;35.20
1455;DHT22;721;48.168;12.818;2023-04-03T05:31:32;3.40;32.70
1455;DHT22;721;48.168;12.818;2023-04-03T05:34:01;3.30;33.30
1455;DHT22;721;48.168;12.818;2023-04-03T05:36:28;3.30;30.50
1455;DHT22;721;48.168;12.818;2023-04-03T05:38:54;3.40;30.50
1455;DHT22;721;48.168;12.818;2023-04-03T05:41:23;3.50;30.80
1455;DHT22;721;48.168;12.818;2023-04-03T05:43:51;3.50;28.00
1455;DHT22;721;48.168;12.818;2023-04-03T05:46:19;3.60;28.50
1455;DHT22;721;48.168;12.818;2023-04-03T05:48:46;3.50;24.50
1455;DHT22;721;48.168;12.818;2023-04-03T05:51:17;3.80;25.50
1455;DHT22;721;48.168;12.818;2023-04-03T05:53:44;3.80;25.00
1455;DHT22;721;48.168;12.818;2023-04-03T05:56:12;3.70;25.80
1455;DHT22;721;48.168;12.818;2023-04-03T05:58:39;3.70;25.30
1455;DHT22;721;48.168;12.818;2023-04-03T06:01:06;3.80;25.40
1455;DHT22;721;48.168;12.818;2023-04-03T06:03:33;3.80;24.90
1455;DHT22;721;48.168;12.818;2023-04-03T06:06:03;3.70;24.40
1455;DHT22;721;48.168;12.818;2023-04-03T06:08:32;3.80;24.60
1455;DHT22;721;48.168;12.818;2023-04-03T06:11:00;3.70;23.20
1455;DHT22;721;48.168;12.818;2023-04-03T06:13:28;3.70;24.30
1455;DHT22;721;48.168;12.818;2023-04-03T06:15:55;3.80;24.80
1455;DHT22;721;48.168;12.818;2023-04-03T06:18:24;3.60;24.80
1455;DHT22;721;48.168;12.818;2023-04-03T06:20:50;3.70;25.60
1455;DHT22;721;48.168;12.818;2023-04-03T06:23:17;3.80;25.80
1455;DHT22;721;48.168;12.818;2023-04-03T06:25:45;3.80;26.90
1455;DHT22;721;48.168;12.818;2023-04-03T06:28:13;3.80;25.20
1455;DHT22;721;48.168;12.818;2023-04-03T06:30:39;3.90;25.00
1455;DHT22;721;48.168;12.818;2023-04-03T06:33:06;3.90;25.80
1455;DHT22;721;48.168;12.818;2023-04-03T06:35:34;3.90;26.30
1455;DHT22;721;48.168;12.818;2023-04-03T06:38:04;3.90;25.50
1455;DHT22;721;48.168;12.818;2023-04-03T06:40:35;3.80;24.70
1455;DHT22;721;48.168;12.818;2023-04-03T06:43:03;3.90;23.90
1455;DHT22;721;48.168;12.818;2023-04-03T06:45:31;4.00;23.30
1455;DHT22;721;48.168;12.818;2023-04-03T06:47:58;3.90;22.60
1455;DHT22;721;48.168;12.818;2023-04-03T06:50:25;3.90;23.30
1455;DHT22;721;48.168;12.818;2023-04-03T06:52:52;4.00;24.70
1455;DHT22;721;48.168;12.818;2023-04-03T06:55:19;4.00;24.70
1455;DHT22;721;48.168;12.818;2023-04-03T06:57:46;4.00;24.80
1455;DHT22;721;48.168;12.818;2023-04-03T07:00:15;4.00;25.20
1455;DHT22;721;48.168;12.818;2023-04-03T07:02:42;4.00;25.80
1455;DHT22;721;48.168;12.818;2023-04-03T07:05:09;4.00;25.40
1455;DHT22;721;48.168;12.818;2023-04-03T07:07:37;4.10;25.90
1455;DHT22;721;48.168;12.818;2023-04-03T07:10:05;4.00;25.50
1455;DHT22;721;48.168;12.818;2023-04-03T07:12:32;4.00;25.90
1455;DHT22;721;48.168;12.818;2023-04-03T07:14:59;4.00;25.10
1455;DHT22;721;48.168;12.818;2023-04-03T07:17:28;3.90;26.20
1455;DHT22;721;48.168;12.818;2023-04-03T07:19:54;4.10;27.30
1455;DHT22;721;48.168;12.818;2023-04-03T07:22:21;4.30;28.50
1455;DHT22;721;48.168;12.818;2023-04-03T07:24:48;4.30;26.80
1455;DHT22;721;48.168;12.818;2023-04-03T07:27:15;4.40;26.60
1455;DHT22;721;48.168;12.818;2023-04-03T07:29:43;4.60;24.50
1455;DHT22;721;48.168;12.818;2023-04-03T07:32:10;4.60;23.80
1455;DHT22;721;48.168;12.818;2023-04-03T07:34:38;4.50;22.70
1455;DHT22;721;48.168;12.818;2023-04-03T07:37:05;4.60;23.70
1455;DHT22;721;48.168;12.818;2023-04-03T07:39:32;4.30;20.00
1455;DHT22;721;48.168;12.818;2023-04-03T07:41:59;4.40;22.30
1455;DHT22;721;48.168;12.818;2023-04-03T07:44:26;4.50;21.90
1455;DHT22;721;48.168;12.818;2023-04-03T07:46:53;4.50;23.30
1455;DHT22;721;48.168;12.818;2023-04-03T07:49:21;4.50;22.40
1455;DHT22;721;48.168;12.818;2023-04-03T07:51:49;4.60;22.00
1455;DHT22;721;48.168;12.818;2023-04-03T07:54:17;4.70;20.70
1455;DHT22;721;48.168;12.818;2023-04-03T07:56:43;4.60;21.10
1455;DHT22;721;48.168;12.818;2023-04-03T07:59:10;4.70;22.50
1455;DHT22;721;48.168;12.818;2023-04-03T08:01:37;4.80;21.60
1455;DHT22;721;48.168;12.818;2023-04-03T08:04:04;4.80;21.70
1455;DHT22;721;48.168;12.818;2023-04-03T08:06:32;4.90;20.90
1455;DHT22;721;48.168;12.818;2023-04-03T08:09:02;4.90;22.30
1455;DHT22;721;48.168;12.818;2023-04-03T08:11:30;4.90;21.70
1455;DHT22;721;48.168;12.818;2023-04-03T08:13:57;4.90;22.70
1455;DHT22;721;48.168;12.818;2023-04-03T08:16:25;4.90;23.90
1455;DHT22;721;48.168;12.818;2023-04-03T08:18:55;4.90;24.90
1455;DHT22;721;48.168;12.818;2023-04-03T08:21:22;5.00;22.20
1455;DHT22;721;48.168;12.818;2023-04-03T08:23:50;5.10;13.40
1455;DHT22;721;48.168;12.818;2023-04-03T08:26:19;5.10;14.10
1455;DHT22;721;48.168;12.818;2023-04-03T08:28:47;5.10;12.10
1455;DHT22;721;48.168;12.818;2023-04-03T08:31:16;5.10;11.70
1455;DHT22;721;48.168;12.818;2023-04-03T08:33:44;5.20;13.10
1455;DHT22;721;48.168;12.818;2023-04-03T08:36:17;5.10;8.20
1455;DHT22;721;48.168;12.818;2023-04-03T08:38:44;4.90;7.80
1455;DHT22;721;48.168;12.818;2023-04-03T08:41:15;4.80;9.50
1455;DHT22;721;48.168;12.818;2023-04-03T08:44:01;4.80;10.30
1455;DHT22;721;48.168;12.818;2023-04-03T08:46:40;4.90;9.90
1455;DHT22;721;48.168;12.818;2023-04-03T08:49:14;5.10;13.60
1455;DHT22;721;48.168;12.818;2023-04-03T08:51:47;5.30;10.30
1455;DHT22;721;48.168;12.818;2023-04-03T08:54:28;5.40;8.60
1455;DHT22;721;48.168;12.818;2023-04-03T08:56:55;5.60;7.40
1455;DHT22;721;48.168;12.818;2023-04-03T08:59:27;5.60;4.70
1455;DHT22;721;48.168;12.818;2023-04-03T09:01:56;5.50;3.40
1455;DHT22;721;48.168;12.818;2023-04-03T09:04:26;5.50;2.90
1455;DHT22;721;48.168;12.818;2023-04-03T09:06:57;5.40;5.00
1455;DHT22;721;48.168;12.818;2023-04-03T09:09:31;5.50;6.70
1455;DHT22;721;48.168;12.818;2023-04-03T09:12:05;5.60;6.40
1455;DHT22;721;48.168;12.818;2023-04-03T09:14:39;5.60;6.40
1455;DHT22;721;48.168;12.818;2023-04-03T09:17:14;5.70;7.00
1455;DHT22;721;48.168;12.818;2023-04-03T09:19:51;5.40;5.80
1455;DHT22;721;48.168;12.818;2023-04-03T09:22:24;5.40;7.50
1455;DHT22;721;48.168;12.818;2023-04-03T09:24:57;5.30;8.10
1455;DHT22;721;48.168;12.818;2023-04-03T09:27:25;5.20;8.10
1455;DHT22;721;48.168;12.818;2023-04-03T09:29:55;5.30;9.10
1455;DHT22;721;48.168;12.818;2023-04-03T09:32:26;5.20;8.10
1455;DHT22;721;48.168;12.818;2023-04-03T09:34:55;5.20;8.00
1455;DHT22;721;48.168;12.818;2023-04-03T09:37:40;5.20;9.00
1455;DHT22;721;48.168;12.818;2023-04-03T09:40:30;5.20;9.20
1455;DHT22;721;48.168;12.818;2023-04-03T09:42:58;5.20;10.80
1455;DHT22;721;48.168;12.818;2023-04-03T09:45:29;5.20;10.60
1455;DHT22;721;48.168;12.818;2023-04-03T09:48:08;5.00;12.90
1455;DHT22;721;48.168;12.818;2023-04-03T09:50:36;5.00;11.60
1455;DHT22;721;48.168;12.818;2023-04-03T09:53:12;4.90;12.00
1455;DHT22;721;48.168;12.818;2023-04-03T09:55:51;4.80;10.40
1455;DHT22;721;48.168;12.818;2023-04-03T09:58:25;4.90;10.80
1455;DHT22;721;48.168;12.818;2023-04-03T10:00:58;4.90;10.10
1455;DHT22;721;48.168;12.818;2023-04-03T10:03:29;5.00;10.40
1455;DHT22;721;48.168;12.818;2023-04-03T10:05:56;5.10;9.40
1455;DHT22;721;48.168;12.818;2023-04-03T10:08:27;5.20;11.90
1455;DHT22;721;48.168;12.818;2023-04-03T10:11:15;5.30;9.60
1455;DHT22;721;48.168;12.818;2023-04-03T10:13:54;5.50;9.40
1455;DHT22;721;48.168;12.818;2023-04-03T10:16:27;5.70;9.70
1455;DHT22;721;48.168;12.818;2023-04-03T10:19:03;5.70;10.30
1455;DHT22;721;48.168;12.818;2023-04-03T10:21:39;5.80;8.50
1455;DHT22;721;48.168;12.818;2023-04-03T10:24:11;6.00;4.90
1455;DHT22;721;48.168;12.818;2023-04-03T10:26:45;6.00;7.10
1455;DHT22;721;48.168;12.818;2023-04-03T10:29:22;5.90;2.70
1455;DHT22;721;48.168;12.818;2023-04-03T10:31:57;6.00;5.20
1455;DHT22;721;48.168;12.818;2023-04-03T10:34:29;5.90;5.00
1455;DHT22;721;48.168;12.818;2023-04-03T10:37:04;5.90;5.60
1455;DHT22;721;48.168;12.818;2023-04-03T10:39:36;5.90;6.60
1455;DHT22;721;48.168;12.818;2023-04-03T10:42:08;5.80;1.80
1455;DHT22;721;48.168;12.818;2023-04-03T10:44:47;5.70;3.00
1455;DHT22;721;48.168;12.818;2023-04-03T10:47:21;5.60;1.30
1455;DHT22;721;48.168;12.818;2023-04-03T10:49:58;5.60;1.00
1455;DHT22;721;48.168;12.818;2023-04-03T10:52:31;5.30;1.00
1455;DHT22;721;48.168;12.818;2023-04-03T10:55:14;5.30;1.00
1455;DHT22;721;48.168;12.818;2023-04-03T10:57:45;5.40;1.00
1455;DHT22;721;48.168;12.818;2023-04-03T11:00:17;5.40;1.00
1455;DHT22;721;48.168;12.818;2023-04-03T11:02:51;5.40;1.00
1455;DHT22;721;48.168;12.818;2023-04-03T11:05:26;5.50;1.00
1455;DHT22;721;48.168;12.818;2023-04-03T11:07:57;5.60;1.00
1455;DHT22;721;48.168;12.818;2023-04-03T11:10:35;5.60;1.00
1455;DHT22;721;48.168;12.818;2023-04-03T11:13:11;5.70;1.00
1455;DHT22;721;48.168;12.818;2023-04-03T11:15:38;5.80;1.00
1455;DHT22;721;48.168;12.818;2023-04-03T11:18:11;6.00;1.00
1455;DHT22;721;48.168;12.818;2023-04-03T11:20:42;5.90;1.00
1455;DHT22;721;48.168;12.818;2023-04-03T11:23:15;5.90;1.00
1455;DHT22;721;48.168;12.818;2023-04-03T11:25:46;5.90;1.00
1455;DHT22;721;48.168;12.818;2023-04-03T11:28:15;5.90;1.00
1455;DHT22;721;48.168;12.818;2023-04-03T11:30:47;6.00;1.00
1455;DHT22;721;48.168;12.818;2023-04-03T11:33:32;6.10;1.00
1455;DHT22;721;48.168;12.818;2023-04-03T11:36:06;6.20;1.00
1455;DHT22;721;48.168;12.818;2023-04-03T11:38:36;6.40;1.00
1455;DHT22;721;48.168;12.818;2023-04-03T11:41:07;6.30;1.00
1455;DHT22;721;48.168;12.818;2023-04-03T11:43:40;6.40;1.00
1455;DHT22;721;48.168;12.818;2023-04-03T11:46:08;6.50;1.00
1455;DHT22;721;48.168;12.818;2023-04-03T11:48:50;6.60;1.00
1455;DHT22;721;48.168;12.818;2023-04-03T11:51:42;6.70;1.00
1455;DHT22;721;48.168;12.818;2023-04-03T11:54:44;6.80;1.00
1455;DHT22;721;48.168;12.818;2023-04-03T11:57:44;6.90;1.00
1455;DHT22;721;48.168;12.818;2023-04-03T12:00:46;7.10;1.00
1455;DHT22;721;48.168;12.818;2023-04-03T12:06:53;7.40;1.00
1455;DHT22;721;48.168;12.818;2023-04-03T12:09:28;7.40;1.00
1455;DHT22;721;48.168;12.818;2023-04-03T12:11:57;7.70;1.00
1455;DHT22;721;48.168;12.818;2023-04-03T12:14:25;8.20;1.00
1455;DHT22;721;48.168;12.818;2023-04-03T12:16:53;8.50;1.00
1455;DHT22;721;48.168;12.818;2023-04-03T12:19:37;8.90;1.00
1455;DHT22;721;48.168;12.818;2023-04-03T12:22:17;9.10;1.00
1455;DHT22;721;48.168;12.818;2023-04-03T12:24:47;9.30;1.00
1455;DHT22;721;48.168;12.818;2023-04-03T12:27:27;9.30;1.00
1455;DHT22;721;48.168;12.818;2023-04-03T12:30:15;9.20;1.00
1455;DHT22;721;48.168;12.818;2023-04-03T12:33:04;8.50;1.00
1455;DHT22;721;48.168;12.818;2023-04-03T12:35:42;8.20;1.00
1455;DHT22;721;48.168;12.818;2023-04-03T12:38:47;8.30;1.00
1455;DHT22;721;48.168;12.818;2023-04-03T12:41:21;8.60;1.00
1455;DHT22;721;48.168;12.818;2023-04-03T12:44:03;9.00;1.00
1455;DHT22;721;48.168;12.818;2023-04-03T12:46:37;9.40;1.00
1455;DHT22;721;48.168;12.818;2023-04-03T12:49:32;9.30;1.00
1455;DHT22;721;48.168;12.818;2023-04-03T12:52:03;9.10;1.00
1455;DHT22;721;48.168;12.818;2023-04-03T12:54:36;8.90;1.00
1455;DHT22;721;48.168;12.818;2023-04-03T12:57:17;8.50;1.00
1455;DHT22;721;48.168;12.818;2023-04-03T12:59:44;8.40;1.00
1455;DHT22;721;48.168;12.818;2023-04-03T13:02:22;8.20;1.00
1455;DHT22;721;48.168;12.818;2023-04-03T13:04:50;8.30;1.00
1455;DHT22;721;48.168;12.818;2023-04-03T13:07:22;8.30;1.00
1455;DHT22;721;48.168;12.818;2023-04-03T13:10:01;8.40;1.00
1455;DHT22;721;48.168;12.818;2023-04-03T13:12:28;8.40;1.00
1455;DHT22;721;48.168;12.818;2023-04-03T13:14:59;8.40;1.00
1455;DHT22;721;48.168;12.818;2023-04-03T13:17:27;8.30;1.00
1455;DHT22;721;48.168;12.818;2023-04-03T13:19:54;8.20;1.00
1455;DHT22;721;48.168;12.818;2023-04-03T13:22:28;8.20;1.00
1455;DHT22;721;48.168;12.818;2023-04-03T13:25:00;8.00;1.00
1455;DHT22;721;48.168;12.818;2023-04-03T13:27:30;7.70;1.00
1455;DHT22;721;48.168;12.818;2023-04-03T13:29:59;7.70;1.00
1455;DHT22;721;48.168;12.818;2023-04-03T13:32:31;7.60;1.00
1455;DHT22;721;48.168;12.818;2023-04-03T13:34:59;7.70;1.00
1455;DHT22;721;48.168;12.818;2023-04-03T13:37:28;7.90;1.00
1455;DHT22;721;48.168;12.818;2023-04-03T13:40:08;8.00;1.00
1455;DHT22;721;48.168;12.818;2023-04-03T13:42:38;8.20;1.00
1455;DHT22;721;48.168;12.818;2023-04-03T13:45:16;8.10;1.00
1455;DHT22;721;48.168;12.818;2023-04-03T13:47:46;8.00;1.00
1455;DHT22;721;48.168;12.818;2023-04-03T13:50:16;8.10;1.00
1455;DHT22;721;48.168;12.818;2023-04-03T13:52:46;8.20;1.00
1455;DHT22;721;48.168;12.818;2023-04-03T13:55:21;7.90;1.00
1455;DHT22;721;48.168;12.818;2023-04-03T13:57:50;7.50;1.00
1455;DHT22;721;48.168;12.818;2023-04-03T14:00:27;7.40;1.00
1455;DHT22;721;48.168;12.818;2023-04-03T14:02:56;7.30;1.00
1455;DHT22;721;48.168;12.818;2023-04-03T14:05:23;7.10;1.00
1455;DHT22;721;48.168;12.818;2023-04-03T14:07:52;6.80;1.00
1455;DHT22;721;48.168;12.818;2023-04-03T14:10:21;6.80;1.00
1455;DHT22;721;48.168;12.818;2023-04-03T14:12:48;6.80;1.00
1455;DHT22;721;48.168;12.818;2023-04-03T14:15:18;7.00;1.00
1455;DHT22;721;48.168;12.818;2023-04-03T14:17:46;7.10;1.00
1455;DHT22;721;48.168;12.818;2023-04-03T14:20:15;7.10;1.00
1455;DHT22;721;48.168;12.818;2023-04-03T14:22:43;7.10;1.00
1455;DHT22;721;48.168;12.818;2023-04-03T14:25:10;7.20;1.00
1455;DHT22;721;48.168;12.818;2023-04-03T14:27:41;7.30;1.00
1455;DHT22;721;48.168;12.818;2023-04-03T14:30:12;7.40;1.00
1455;DHT22;721;48.168;12.818;2023-04-03T14:32:41;7.60;1.00
1455;DHT22;721;48.168;12.818;2023-04-03T14:35:08;7.50;1.00
1455;DHT22;721;48.168;12.818;2023-04-03T14:37:35;7.50;1.00
1455;DHT22;721;48.168;12.818;2023-04-03T14:40:04;7.60;1.00
1455;DHT22;721;48.168;12.818;2023-04-03T14:42:34;8.00;1.00
1455;DHT22;721;48.168;12.818;2023-04-03T14:45:04;8.30;1.00
1455;DHT22;721;48.168;12.818;2023-04-03T14:47:32;8.90;1.00
1455;DHT22;721;48.168;12.818;2023-04-03T14:50:00;9.20;1.00
1455;DHT22;721;48.168;12.818;2023-04-03T14:52:29;9.60;1.00
1455;DHT22;721;48.168;12.818;2023-04-03T14:54:56;10.10;1.00
1455;DHT22;721;48.168;12.818;2023-04-03T14:57:25;10.30;1.00
1455;DHT22;721;48.168;12.818;2023-04-03T14:59:53;10.10;1.00
1455;DHT22;721;48.168;12.818;2023-04-03T15:02:28;10.00;1.00
1455;DHT22;721;48.168;12.818;2023-04-03T15:04:56;9.90;1.00
1455;DHT22;721;48.168;12.818;2023-04-03T15:07:25;9.60;1.00
1455;DHT22;721;48.168;12.818;2023-04-03T15:09:53;9.60;1.00
1455;DHT22;721;48.168;12.818;2023-04-03T15:12:21;9.60;1.00
1455;DHT22;721;48.168;12.818;2023-04-03T15:14:49;9.60;1.00
1455;DHT22;721;48.168;12.818;2023-04-03T15:17:17;9.90;1.00
1455;DHT22;721;48.168;12.818;2023-04-03T15:19:47;10.00;1.00
1455;DHT22;721;48.168;12.818;2023-04-03T15:22:14;10.20;1.00
1455;DHT22;721;48.168;12.818;2023-04-03T15:24:42;10.10;1.00
1455;DHT22;721;48.168;12.818;2023-04-03T15:27:09;10.20;1.00
1455;DHT22;721;48.168;12.818;2023-04-03T15:29:36;10.50;1.00
1455;DHT22;721;48.168;12.818;2023-04-03T15:32:03;10.40;1.00
1455;DHT22;721;48.168;12.818;2023-04-03T15:34:30;10.40;1.00
1455;DHT22;721;48.168;12.818;2023-04-03T15:36:59;10.30;1.00
1455;DHT22;721;48.168;12.818;2023-04-03T15:39:26;10.00;1.00
1455;DHT22;721;48.168;12.818;2023-04-03T15:41:53;9.60;1.00
1455;DHT22;721;48.168;12.818;2023-04-03T15:44:20;9.30;1.00
1455;DHT22;721;48.168;12.818;2023-04-03T15:46:48;8.90;1.00
1455;DHT22;721;48.168;12.818;2023-04-03T15:49:17;8.70;1.00
1455;DHT22;721;48.168;12.818;2023-04-03T15:51:43;8.70;1.00
1455;DHT22;721;48.168;12.818;2023-04-03T15:54:12;8.50;1.00
1455;DHT22;721;48.168;12.818;2023-04-03T15:56:39;8.20;1.00
1455;DHT22;721;48.168;12.818;2023-04-03T15:59:05;8.00;1.00
1455;DHT22;721;48.168;12.818;2023-04-03T16:01:32;7.90;1.00
1455;DHT22;721;48.168;12.818;2023-04-03T16:03:59;7.70;1.00
1455;DHT22;721;48.168;12.818;2023-04-03T16:06:26;7.60;1.00
1455;DHT22;721;48.168;12.818;2023-04-03T16:08:55;7.40;1.00
1455;DHT22;721;48.168;12.818;2023-04-03T16:11:25;7.30;1.00
1455;DHT22;721;48.168;12.818;2023-04-03T16:13:52;7.30;1.00
1455;DHT22;721;48.168;12.818;2023-04-03T16:16:19;7.10;1.00
1455;DHT22;721;48.168;12.818;2023-04-03T16:18:46;6.90;1.00
1455;DHT22;721;48.168;12.818;2023-04-03T16:21:15;6.90;1.00
1455;DHT22;721;48.168;12.818;2023-04-03T16:23:42;6.70;1.00
1455;DHT22;721;48.168;12.818;2023-04-03T16:26:09;6.70;1.00
1455;DHT22;721;48.168;12.818;2023-04-03T16:28:37;6.50;1.00
1455;DHT22;721;48.168;12.818;2023-04-03T16:31:05;6.40;1.00
1455;DHT22;721;48.168;12.818;2023-04-03T16:33:33;6.30;1.00
1455;DHT22;721;48.168;12.818;2023-04-03T16:36:00;6.30;1.00
1455;DHT22;721;48.168;12.818;2023-04-03T16:38:28;6.20;1.00
1455;DHT22;721;48.168;12.818;2023-04-03T16:40:55;6.00;1.00
1455;DHT22;721;48.168;12.818;2023-04-03T16:43:24;5.90;1.00
1455;DHT22;721;48.168;12.818;2023-04-03T16:45:53;5.90;1.00
1455;DHT22;721;48.168;12.818;2023-04-03T16:48:19;5.80;1.00